sensor_id;sensor_type;location;lat;lon;timestamp;P1;durP1;ratioP1;P2;durP2;ratioP2
15616;SDS011;7908;51.688;7.130;2023-01-10T00:02:14;30.40;;;14.43;;
15616;SDS011;7908;51.688;7.130;2023-01-10T00:04:43;28.97;;;14.47;;
15616;SDS011;7908;51.688;7.130;2023-01-10T00:07:12;26.80;;;14.67;;
15616;SDS011;7908;51.688;7.130;2023-01-10T00:09:40;29.50;;;13.93;;
15616;SDS011;7908;51.688;7.130;2023-01-10T00:12:09;39.83;;;14.87;;
15616;SDS011;7908;51.688;7.130;2023-01-10T00:14:55;27.10;;;11.63;;
15616;SDS011;7908;51.688;7.130;2023-01-10T00:17:25;24.57;;;12.97;;
15616;SDS011;7908;51.688;7.130;2023-01-10T00:19:54;25.13;;;11.33;;
15616;SDS011;7908;51.688;7.130;2023-01-10T00:22:23;25.50;;;11.40;;
15616;SDS011;7908;51.688;7.130;2023-01-10T00:24:52;27.90;;;13.17;;
15616;SDS011;7908;51.688;7.130;2023-01-10T00:27:21;30.87;;;13.23;;
15616;SDS011;7908;51.688;7.130;2023-01-10T00:29:49;27.83;;;12.13;;
15616;SDS011;7908;51.688;7.130;2023-01-10T00:32:23;31.80;;;12.87;;
15616;SDS011;7908;51.688;7.130;2023-01-10T00:34:53;31.17;;;12.87;;
15616;SDS011;7908;51.688;7.130;2023-01-10T00:37:22;29.07;;;13.20;;
15616;SDS011;7908;51.688;7.130;2023-01-10T00:39:51;25.73;;;11.73;;
15616;SDS011;7908;51.688;7.130;2023-01-10T00:42:19;21.17;;;11.90;;
15616;SDS011;7908;51.688;7.130;2023-01-10T00:45:06;27.97;;;12.80;;
15616;SDS011;7908;51.688;7.130;2023-01-10T00:47:39;24.87;;;12.10;;
15616;SDS011;7908;51.688;7.130;2023-01-10T00:50:08;23.10;;;12.57;;
15616;SDS011;7908;51.688;7.130;2023-01-10T00:52:38;26.17;;;12.80;;
15616;SDS011;7908;51.688;7.130;2023-01-10T00:55:07;26.20;;;12.70;;
15616;SDS011;7908;51.688;7.130;2023-01-10T00:57:36;28.63;;;13.83;;
15616;SDS011;7908;51.688;7.130;2023-01-10T01:00:05;31.30;;;13.50;;
15616;SDS011;7908;51.688;7.130;2023-01-10T01:02:35;28.20;;;13.00;;
15616;SDS011;7908;51.688;7.130;2023-01-10T01:05:06;28.73;;;13.20;;
15616;SDS011;7908;51.688;7.130;2023-01-10T01:07:35;27.13;;;13.67;;
15616;SDS011;7908;51.688;7.130;2023-01-10T01:10:04;27.67;;;12.63;;
15616;SDS011;7908;51.688;7.130;2023-01-10T01:12:51;26.77;;;12.37;;
15616;SDS011;7908;51.688;7.130;2023-01-10T01:15:20;28.00;;;12.70;;
15616;SDS011;7908;51.688;7.130;2023-01-10T01:17:48;29.53;;;11.33;;
15616;SDS011;7908;51.688;7.130;2023-01-10T01:20:18;28.83;;;12.87;;
15616;SDS011;7908;51.688;7.130;2023-01-10T01:22:47;29.87;;;12.47;;
15616;SDS011;7908;51.688;7.130;2023-01-10T01:25:16;26.87;;;12.13;;
15616;SDS011;7908;51.688;7.130;2023-01-10T01:27:44;29.23;;;12.43;;
15616;SDS011;7908;51.688;7.130;2023-01-10T01:30:13;29.73;;;12.93;;
15616;SDS011;7908;51.688;7.130;2023-01-10T01:32:42;20.67;;;10.83;;
15616;SDS011;7908;51.688;7.130;2023-01-10T01:35:11;27.27;;;11.53;;
15616;SDS011;7908;51.688;7.130;2023-01-10T01:37:43;27.67;;;11.30;;
15616;SDS011;7908;51.688;7.130;2023-01-10T01:40:11;30.93;;;10.93;;
15616;SDS011;7908;51.688;7.130;2023-01-10T01:42:42;24.27;;;11.37;;
15616;SDS011;7908;51.688;7.130;2023-01-10T01:48:08;35.13;;;11.10;;
15616;SDS011;7908;51.688;7.130;2023-01-10T01:50:58;32.07;;;10.97;;
15616;SDS011;7908;51.688;7.130;2023-01-10T01:53:36;25.43;;;10.43;;
15616;SDS011;7908;51.688;7.130;2023-01-10T01:56:10;21.23;;;9.50;;
15616;SDS011;7908;51.688;7.130;2023-01-10T01:58:43;17.37;;;9.17;;
15616;SDS011;7908;51.688;7.130;2023-01-10T02:01:15;23.03;;;9.90;;
15616;SDS011;7908;51.688;7.130;2023-01-10T02:03:46;21.00;;;9.50;;
15616;SDS011;7908;51.688;7.130;2023-01-10T02:06:20;22.03;;;9.07;;
15616;SDS011;7908;51.688;7.130;2023-01-10T02:08:55;26.57;;;9.03;;
15616;SDS011;7908;51.688;7.130;2023-01-10T02:11:30;18.90;;;7.50;;
15616;SDS011;7908;51.688;7.130;2023-01-10T02:13:58;22.50;;;9.10;;
15616;SDS011;7908;51.688;7.130;2023-01-10T02:16:32;29.77;;;9.03;;
15616;SDS011;7908;51.688;7.130;2023-01-10T02:19:01;18.80;;;7.77;;
15616;SDS011;7908;51.688;7.130;2023-01-10T02:28:10;24.40;;;6.70;;
15616;SDS011;7908;51.688;7.130;2023-01-10T02:31:10;23.57;;;5.80;;
15616;SDS011;7908;51.688;7.130;2023-01-10T02:34:12;18.50;;;6.73;;
15616;SDS011;7908;51.688;7.130;2023-01-10T02:36:48;20.00;;;6.90;;
15616;SDS011;7908;51.688;7.130;2023-01-10T02:39:23;15.97;;;6.63;;
15616;SDS011;7908;51.688;7.130;2023-01-10T02:42:01;23.73;;;6.80;;
15616;SDS011;7908;51.688;7.130;2023-01-10T02:44:35;20.37;;;7.30;;
15616;SDS011;7908;51.688;7.130;2023-01-10T02:47:11;24.87;;;7.00;;
15616;SDS011;7908;51.688;7.130;2023-01-10T02:49:42;15.70;;;6.27;;
15616;SDS011;7908;51.688;7.130;2023-01-10T02:52:13;24.83;;;7.00;;
15616;SDS011;7908;51.688;7.130;2023-01-10T02:54:45;22.13;;;6.67;;
15616;SDS011;7908;51.688;7.130;2023-01-10T02:57:22;19.83;;;5.73;;
15616;SDS011;7908;51.688;7.130;2023-01-10T03:00:07;15.83;;;5.70;;
15616;SDS011;7908;51.688;7.130;2023-01-10T03:02:50;18.93;;;4.03;;
15616;SDS011;7908;51.688;7.130;2023-01-10T03:05:30;23.23;;;5.93;;
15616;SDS011;7908;51.688;7.130;2023-01-10T03:08:17;22.33;;;5.70;;
15616;SDS011;7908;51.688;7.130;2023-01-10T03:10:55;14.53;;;5.23;;
15616;SDS011;7908;51.688;7.130;2023-01-10T03:13:27;20.63;;;5.00;;
15616;SDS011;7908;51.688;7.130;2023-01-10T03:16:01;21.90;;;6.37;;
15616;SDS011;7908;51.688;7.130;2023-01-10T03:18:35;20.80;;;5.27;;
15616;SDS011;7908;51.688;7.130;2023-01-10T03:21:10;20.50;;;4.33;;
15616;SDS011;7908;51.688;7.130;2023-01-10T03:23:40;19.07;;;5.43;;
15616;SDS011;7908;51.688;7.130;2023-01-10T03:26:09;23.30;;;6.07;;
15616;SDS011;7908;51.688;7.130;2023-01-10T03:28:40;30.20;;;6.47;;
15616;SDS011;7908;51.688;7.130;2023-01-10T03:31:14;22.23;;;6.20;;
15616;SDS011;7908;51.688;7.130;2023-01-10T03:33:47;20.40;;;7.00;;
15616;SDS011;7908;51.688;7.130;2023-01-10T03:36:20;16.13;;;5.23;;
15616;SDS011;7908;51.688;7.130;2023-01-10T03:38:56;19.23;;;5.77;;
15616;SDS011;7908;51.688;7.130;2023-01-10T03:41:33;22.07;;;6.63;;
15616;SDS011;7908;51.688;7.130;2023-01-10T03:44:12;23.50;;;5.57;;
15616;SDS011;7908;51.688;7.130;2023-01-10T03:47:03;27.10;;;6.07;;
15616;SDS011;7908;51.688;7.130;2023-01-10T03:49:35;24.50;;;7.47;;
15616;SDS011;7908;51.688;7.130;2023-01-10T03:52:08;19.47;;;5.00;;
15616;SDS011;7908;51.688;7.130;2023-01-10T03:54:40;20.90;;;6.60;;
15616;SDS011;7908;51.688;7.130;2023-01-10T03:57:13;24.70;;;5.63;;
15616;SDS011;7908;51.688;7.130;2023-01-10T03:59:43;25.00;;;6.93;;
15616;SDS011;7908;51.688;7.130;2023-01-10T04:02:13;19.00;;;6.27;;
15616;SDS011;7908;51.688;7.130;2023-01-10T04:04:41;18.43;;;5.70;;
15616;SDS011;7908;51.688;7.130;2023-01-10T04:07:11;19.70;;;6.70;;
15616;SDS011;7908;51.688;7.130;2023-01-10T04:09:40;25.47;;;6.13;;
15616;SDS011;7908;51.688;7.130;2023-01-10T04:12:08;21.73;;;5.40;;
15616;SDS011;7908;51.688;7.130;2023-01-10T04:14:37;24.20;;;5.90;;
15616;SDS011;7908;51.688;7.130;2023-01-10T04:17:05;15.63;;;5.60;;
15616;SDS011;7908;51.688;7.130;2023-01-10T04:19:34;23.30;;;5.87;;
15616;SDS011;7908;51.688;7.130;2023-01-10T04:22:02;25.90;;;6.23;;
15616;SDS011;7908;51.688;7.130;2023-01-10T04:24:33;24.93;;;6.53;;
15616;SDS011;7908;51.688;7.130;2023-01-10T04:27:02;19.33;;;5.83;;
15616;SDS011;7908;51.688;7.130;2023-01-10T04:29:31;20.97;;;6.83;;
15616;SDS011;7908;51.688;7.130;2023-01-10T04:31:59;18.23;;;6.10;;
15616;SDS011;7908;51.688;7.130;2023-01-10T04:34:31;20.93;;;6.73;;
15616;SDS011;7908;51.688;7.130;2023-01-10T04:36:59;25.70;;;5.90;;
15616;SDS011;7908;51.688;7.130;2023-01-10T04:39:28;22.87;;;6.17;;
15616;SDS011;7908;51.688;7.130;2023-01-10T04:41:58;23.07;;;6.13;;
15616;SDS011;7908;51.688;7.130;2023-01-10T04:44:27;20.27;;;6.30;;
15616;SDS011;7908;51.688;7.130;2023-01-10T04:46:55;21.23;;;5.73;;
15616;SDS011;7908;51.688;7.130;2023-01-10T04:49:23;19.43;;;6.23;;
15616;SDS011;7908;51.688;7.130;2023-01-10T04:51:52;20.17;;;6.27;;
15616;SDS011;7908;51.688;7.130;2023-01-10T04:54:21;23.43;;;6.23;;
15616;SDS011;7908;51.688;7.130;2023-01-10T04:56:50;25.03;;;5.30;;
15616;SDS011;7908;51.688;7.130;2023-01-10T04:59:20;19.17;;;5.10;;
15616;SDS011;7908;51.688;7.130;2023-01-10T05:01:49;19.87;;;5.20;;
15616;SDS011;7908;51.688;7.130;2023-01-10T05:04:18;17.10;;;5.63;;
15616;SDS011;7908;51.688;7.130;2023-01-10T05:06:46;23.17;;;5.73;;
15616;SDS011;7908;51.688;7.130;2023-01-10T05:09:15;17.50;;;5.43;;
15616;SDS011;7908;51.688;7.130;2023-01-10T05:11:44;24.77;;;6.80;;
15616;SDS011;7908;51.688;7.130;2023-01-10T05:14:13;19.33;;;5.27;;
15616;SDS011;7908;51.688;7.130;2023-01-10T05:16:42;21.70;;;5.37;;
15616;SDS011;7908;51.688;7.130;2023-01-10T05:19:11;17.93;;;4.50;;
15616;SDS011;7908;51.688;7.130;2023-01-10T05:21:40;22.13;;;5.10;;
15616;SDS011;7908;51.688;7.130;2023-01-10T05:24:08;20.57;;;5.20;;
15616;SDS011;7908;51.688;7.130;2023-01-10T05:26:37;18.43;;;4.83;;
15616;SDS011;7908;51.688;7.130;2023-01-10T05:29:07;19.20;;;5.13;;
15616;SDS011;7908;51.688;7.130;2023-01-10T05:31:37;21.33;;;4.90;;
15616;SDS011;7908;51.688;7.130;2023-01-10T05:34:08;18.63;;;4.40;;
15616;SDS011;7908;51.688;7.130;2023-01-10T05:36:39;23.27;;;5.63;;
15616;SDS011;7908;51.688;7.130;2023-01-10T05:39:07;19.30;;;4.30;;
15616;SDS011;7908;51.688;7.130;2023-01-10T05:41:36;15.40;;;5.27;;
15616;SDS011;7908;51.688;7.130;2023-01-10T05:44:04;15.93;;;4.10;;
15616;SDS011;7908;51.688;7.130;2023-01-10T05:46:33;18.13;;;4.20;;
15616;SDS011;7908;51.688;7.130;2023-01-10T05:49:03;17.83;;;3.97;;
15616;SDS011;7908;51.688;7.130;2023-01-10T05:51:32;21.37;;;4.90;;
15616;SDS011;7908;51.688;7.130;2023-01-10T05:54:01;17.63;;;5.27;;
15616;SDS011;7908;51.688;7.130;2023-01-10T05:56:30;19.70;;;4.97;;
15616;SDS011;7908;51.688;7.130;2023-01-10T05:58:58;19.23;;;5.10;;
15616;SDS011;7908;51.688;7.130;2023-01-10T06:01:39;20.43;;;4.50;;
15616;SDS011;7908;51.688;7.130;2023-01-10T06:04:08;25.87;;;7.23;;
15616;SDS011;7908;51.688;7.130;2023-01-10T06:06:38;19.37;;;6.23;;
15616;SDS011;7908;51.688;7.130;2023-01-10T06:09:06;20.03;;;4.60;;
15616;SDS011;7908;51.688;7.130;2023-01-10T06:11:35;15.73;;;5.60;;
15616;SDS011;7908;51.688;7.130;2023-01-10T06:14:04;26.50;;;7.90;;
15616;SDS011;7908;51.688;7.130;2023-01-10T06:16:33;23.03;;;4.80;;
15616;SDS011;7908;51.688;7.130;2023-01-10T06:19:02;24.07;;;4.73;;
15616;SDS011;7908;51.688;7.130;2023-01-10T06:21:31;16.83;;;6.50;;
15616;SDS011;7908;51.688;7.130;2023-01-10T06:24:01;19.67;;;4.83;;
15616;SDS011;7908;51.688;7.130;2023-01-10T06:26:30;22.23;;;4.97;;
15616;SDS011;7908;51.688;7.130;2023-01-10T06:28:58;25.43;;;6.50;;
15616;SDS011;7908;51.688;7.130;2023-01-10T06:31:27;20.73;;;4.77;;
15616;SDS011;7908;51.688;7.130;2023-01-10T06:33:55;21.83;;;5.07;;
15616;SDS011;7908;51.688;7.130;2023-01-10T06:36:24;24.20;;;5.10;;
15616;SDS011;7908;51.688;7.130;2023-01-10T06:38:53;17.10;;;6.10;;
15616;SDS011;7908;51.688;7.130;2023-01-10T06:41:23;25.17;;;6.23;;
15616;SDS011;7908;51.688;7.130;2023-01-10T06:43:52;23.67;;;5.83;;
15616;SDS011;7908;51.688;7.130;2023-01-10T06:46:20;30.97;;;6.67;;
15616;SDS011;7908;51.688;7.130;2023-01-10T06:48:49;24.07;;;6.23;;
15616;SDS011;7908;51.688;7.130;2023-01-10T06:51:17;22.17;;;6.47;;
15616;SDS011;7908;51.688;7.130;2023-01-10T06:53:46;25.13;;;6.50;;
15616;SDS011;7908;51.688;7.130;2023-01-10T06:56:14;21.50;;;6.33;;
15616;SDS011;7908;51.688;7.130;2023-01-10T06:58:46;20.87;;;6.70;;
15616;SDS011;7908;51.688;7.130;2023-01-10T07:01:16;27.97;;;5.57;;
15616;SDS011;7908;51.688;7.130;2023-01-10T07:03:46;24.93;;;6.67;;
15616;SDS011;7908;51.688;7.130;2023-01-10T07:06:15;21.27;;;5.50;;
15616;SDS011;7908;51.688;7.130;2023-01-10T07:08:44;24.83;;;7.33;;
15616;SDS011;7908;51.688;7.130;2023-01-10T07:11:14;21.27;;;5.97;;
15616;SDS011;7908;51.688;7.130;2023-01-10T07:13:45;28.33;;;6.57;;
15616;SDS011;7908;51.688;7.130;2023-01-10T07:16:14;26.73;;;6.47;;
15616;SDS011;7908;51.688;7.130;2023-01-10T07:18:43;23.73;;;6.00;;
15616;SDS011;7908;51.688;7.130;2023-01-10T07:21:12;23.30;;;5.50;;
15616;SDS011;7908;51.688;7.130;2023-01-10T07:23:42;27.60;;;7.03;;
15616;SDS011;7908;51.688;7.130;2023-01-10T07:26:10;27.50;;;7.13;;
15616;SDS011;7908;51.688;7.130;2023-01-10T07:28:46;30.00;;;7.03;;
15616;SDS011;7908;51.688;7.130;2023-01-10T07:31:18;21.93;;;6.03;;
15616;SDS011;7908;51.688;7.130;2023-01-10T07:33:49;23.70;;;5.67;;
15616;SDS011;7908;51.688;7.130;2023-01-10T07:36:19;24.07;;;5.80;;
15616;SDS011;7908;51.688;7.130;2023-01-10T07:38:48;21.13;;;5.30;;
15616;SDS011;7908;51.688;7.130;2023-01-10T07:41:17;22.20;;;5.53;;
15616;SDS011;7908;51.688;7.130;2023-01-10T07:43:47;22.77;;;5.17;;
15616;SDS011;7908;51.688;7.130;2023-01-10T07:46:16;22.03;;;5.97;;
15616;SDS011;7908;51.688;7.130;2023-01-10T07:48:45;21.07;;;5.87;;
15616;SDS011;7908;51.688;7.130;2023-01-10T07:51:14;25.10;;;6.33;;
15616;SDS011;7908;51.688;7.130;2023-01-10T07:53:43;29.03;;;8.60;;
15616;SDS011;7908;51.688;7.130;2023-01-10T07:56:11;24.03;;;7.23;;
15616;SDS011;7908;51.688;7.130;2023-01-10T07:58:40;27.77;;;6.00;;
15616;SDS011;7908;51.688;7.130;2023-01-10T08:01:10;29.20;;;6.80;;
15616;SDS011;7908;51.688;7.130;2023-01-10T08:03:39;26.77;;;5.73;;
15616;SDS011;7908;51.688;7.130;2023-01-10T08:06:08;28.13;;;5.93;;
15616;SDS011;7908;51.688;7.130;2023-01-10T08:08:37;27.67;;;5.80;;
15616;SDS011;7908;51.688;7.130;2023-01-10T08:11:06;19.33;;;5.10;;
15616;SDS011;7908;51.688;7.130;2023-01-10T08:13:35;26.00;;;6.00;;
15616;SDS011;7908;51.688;7.130;2023-01-10T08:16:05;26.10;;;5.90;;
15616;SDS011;7908;51.688;7.130;2023-01-10T08:18:36;25.93;;;6.20;;
15616;SDS011;7908;51.688;7.130;2023-01-10T08:21:07;22.50;;;5.93;;
15616;SDS011;7908;51.688;7.130;2023-01-10T08:23:37;22.23;;;6.50;;
15616;SDS011;7908;51.688;7.130;2023-01-10T08:26:05;30.90;;;7.53;;
15616;SDS011;7908;51.688;7.130;2023-01-10T08:28:34;24.87;;;7.07;;
15616;SDS011;7908;51.688;7.130;2023-01-10T08:31:06;25.30;;;6.90;;
15616;SDS011;7908;51.688;7.130;2023-01-10T08:33:37;25.60;;;6.83;;
15616;SDS011;7908;51.688;7.130;2023-01-10T08:36:13;30.83;;;6.77;;
15616;SDS011;7908;51.688;7.130;2023-01-10T08:38:43;20.47;;;5.50;;
15616;SDS011;7908;51.688;7.130;2023-01-10T08:41:13;28.70;;;6.90;;
15616;SDS011;7908;51.688;7.130;2023-01-10T08:43:41;19.83;;;6.23;;
15616;SDS011;7908;51.688;7.130;2023-01-10T08:46:10;29.60;;;7.50;;
15616;SDS011;7908;51.688;7.130;2023-01-10T08:48:41;25.87;;;6.70;;
15616;SDS011;7908;51.688;7.130;2023-01-10T08:51:09;24.30;;;6.27;;
15616;SDS011;7908;51.688;7.130;2023-01-10T08:53:38;31.00;;;8.03;;
15616;SDS011;7908;51.688;7.130;2023-01-10T08:56:07;23.30;;;7.10;;
15616;SDS011;7908;51.688;7.130;2023-01-10T08:58:36;28.77;;;8.40;;
15616;SDS011;7908;51.688;7.130;2023-01-10T09:01:05;25.00;;;7.10;;
15616;SDS011;7908;51.688;7.130;2023-01-10T09:03:37;27.70;;;7.93;;
15616;SDS011;7908;51.688;7.130;2023-01-10T09:06:08;26.60;;;8.33;;
15616;SDS011;7908;51.688;7.130;2023-01-10T09:08:36;29.10;;;8.83;;
15616;SDS011;7908;51.688;7.130;2023-01-10T09:11:05;25.00;;;8.60;;
15616;SDS011;7908;51.688;7.130;2023-01-10T09:13:34;33.00;;;9.13;;
15616;SDS011;7908;51.688;7.130;2023-01-10T09:16:03;21.63;;;8.17;;
15616;SDS011;7908;51.688;7.130;2023-01-10T09:18:32;27.97;;;9.00;;
15616;SDS011;7908;51.688;7.130;2023-01-10T09:21:01;29.30;;;10.50;;
15616;SDS011;7908;51.688;7.130;2023-01-10T09:23:31;28.97;;;9.97;;
15616;SDS011;7908;51.688;7.130;2023-01-10T09:26:02;25.83;;;9.67;;
15616;SDS011;7908;51.688;7.130;2023-01-10T09:28:31;32.27;;;10.10;;
15616;SDS011;7908;51.688;7.130;2023-01-10T09:31:00;31.00;;;10.43;;
15616;SDS011;7908;51.688;7.130;2023-01-10T09:33:30;33.70;;;12.17;;
15616;SDS011;7908;51.688;7.130;2023-01-10T09:36:12;30.93;;;11.80;;
15616;SDS011;7908;51.688;7.130;2023-01-10T09:38:43;29.80;;;11.30;;
15616;SDS011;7908;51.688;7.130;2023-01-10T09:41:16;29.00;;;11.37;;
15616;SDS011;7908;51.688;7.130;2023-01-10T09:44:11;28.17;;;9.90;;
15616;SDS011;7908;51.688;7.130;2023-01-10T09:46:47;27.20;;;9.90;;
15616;SDS011;7908;51.688;7.130;2023-01-10T09:49:24;24.13;;;9.97;;
15616;SDS011;7908;51.688;7.130;2023-01-10T09:52:00;31.23;;;8.73;;
15616;SDS011;7908;51.688;7.130;2023-01-10T09:54:36;23.80;;;9.27;;
15616;SDS011;7908;51.688;7.130;2023-01-10T09:57:09;25.53;;;9.47;;
15616;SDS011;7908;51.688;7.130;2023-01-10T09:59:43;31.53;;;9.27;;
15616;SDS011;7908;51.688;7.130;2023-01-10T10:02:20;26.00;;;9.07;;
15616;SDS011;7908;51.688;7.130;2023-01-10T10:05:02;30.00;;;8.77;;
15616;SDS011;7908;51.688;7.130;2023-01-10T10:07:38;33.40;;;10.37;;
15616;SDS011;7908;51.688;7.130;2023-01-10T10:10:12;31.73;;;10.27;;
15616;SDS011;7908;51.688;7.130;2023-01-10T10:12:46;24.97;;;9.23;;
15616;SDS011;7908;51.688;7.130;2023-01-10T10:15:22;30.53;;;9.40;;
15616;SDS011;7908;51.688;7.130;2023-01-10T10:18:02;24.27;;;8.57;;
15616;SDS011;7908;51.688;7.130;2023-01-10T10:20:45;22.07;;;8.60;;
15616;SDS011;7908;51.688;7.130;2023-01-10T10:23:26;23.17;;;7.53;;
15616;SDS011;7908;51.688;7.130;2023-01-10T10:26:12;26.37;;;8.23;;
15616;SDS011;7908;51.688;7.130;2023-01-10T10:28:51;27.80;;;8.20;;
15616;SDS011;7908;51.688;7.130;2023-01-10T10:34:55;20.30;;;7.77;;
15616;SDS011;7908;51.688;7.130;2023-01-10T10:37:29;28.93;;;8.47;;
15616;SDS011;7908;51.688;7.130;2023-01-10T10:40:01;28.40;;;8.03;;
15616;SDS011;7908;51.688;7.130;2023-01-10T10:42:36;30.83;;;8.87;;
15616;SDS011;7908;51.688;7.130;2023-01-10T10:45:13;26.23;;;7.67;;
15616;SDS011;7908;51.688;7.130;2023-01-10T10:47:48;27.93;;;7.90;;
15616;SDS011;7908;51.688;7.130;2023-01-10T10:50:24;18.53;;;7.83;;
15616;SDS011;7908;51.688;7.130;2023-01-10T10:52:58;27.17;;;8.37;;
15616;SDS011;7908;51.688;7.130;2023-01-10T10:55:28;23.47;;;8.13;;
15616;SDS011;7908;51.688;7.130;2023-01-10T10:58:02;29.07;;;8.50;;
15616;SDS011;7908;51.688;7.130;2023-01-10T11:00:33;29.37;;;7.97;;
15616;SDS011;7908;51.688;7.130;2023-01-10T11:03:03;27.47;;;8.43;;
15616;SDS011;7908;51.688;7.130;2023-01-10T11:05:49;23.63;;;7.47;;
15616;SDS011;7908;51.688;7.130;2023-01-10T11:08:19;23.13;;;6.97;;
15616;SDS011;7908;51.688;7.130;2023-01-10T11:10:51;27.37;;;6.90;;
15616;SDS011;7908;51.688;7.130;2023-01-10T11:13:26;22.07;;;7.07;;
15616;SDS011;7908;51.688;7.130;2023-01-10T11:16:06;26.90;;;6.87;;
15616;SDS011;7908;51.688;7.130;2023-01-10T11:18:35;21.07;;;6.37;;
15616;SDS011;7908;51.688;7.130;2023-01-10T11:21:07;24.03;;;6.90;;
15616;SDS011;7908;51.688;7.130;2023-01-10T11:23:40;25.90;;;7.10;;
15616;SDS011;7908;51.688;7.130;2023-01-10T11:26:23;23.23;;;6.63;;
15616;SDS011;7908;51.688;7.130;2023-01-10T11:29:04;23.23;;;5.43;;
15616;SDS011;7908;51.688;7.130;2023-01-10T11:31:34;22.20;;;5.80;;
15616;SDS011;7908;51.688;7.130;2023-01-10T11:34:05;23.97;;;5.80;;
15616;SDS011;7908;51.688;7.130;2023-01-10T11:36:53;21.23;;;5.00;;
15616;SDS011;7908;51.688;7.130;2023-01-10T11:39:24;22.60;;;5.47;;
15616;SDS011;7908;51.688;7.130;2023-01-10T11:41:53;17.60;;;4.80;;
15616;SDS011;7908;51.688;7.130;2023-01-10T11:44:27;21.33;;;5.37;;
15616;SDS011;7908;51.688;7.130;2023-01-10T11:46:57;23.47;;;6.00;;
15616;SDS011;7908;51.688;7.130;2023-01-10T11:49:31;22.47;;;6.00;;
15616;SDS011;7908;51.688;7.130;2023-01-10T11:52:05;22.73;;;5.03;;
15616;SDS011;7908;51.688;7.130;2023-01-10T11:54:43;24.50;;;6.17;;
15616;SDS011;7908;51.688;7.130;2023-01-10T11:57:14;19.67;;;4.53;;
15616;SDS011;7908;51.688;7.130;2023-01-10T11:59:50;19.60;;;5.37;;
15616;SDS011;7908;51.688;7.130;2023-01-10T12:02:22;27.37;;;5.87;;
15616;SDS011;7908;51.688;7.130;2023-01-10T12:04:53;21.30;;;5.20;;
15616;SDS011;7908;51.688;7.130;2023-01-10T12:07:25;24.57;;;7.50;;
15616;SDS011;7908;51.688;7.130;2023-01-10T12:09:54;24.03;;;5.20;;
15616;SDS011;7908;51.688;7.130;2023-01-10T12:12:25;22.50;;;4.90;;
15616;SDS011;7908;51.688;7.130;2023-01-10T12:14:57;24.07;;;4.93;;
15616;SDS011;7908;51.688;7.130;2023-01-10T12:17:27;21.50;;;5.00;;
15616;SDS011;7908;51.688;7.130;2023-01-10T12:19:59;22.07;;;5.93;;
15616;SDS011;7908;51.688;7.130;2023-01-10T12:22:29;16.87;;;4.10;;
15616;SDS011;7908;51.688;7.130;2023-01-10T12:25:04;18.43;;;4.43;;
15616;SDS011;7908;51.688;7.130;2023-01-10T12:27:44;25.57;;;9.47;;
15616;SDS011;7908;51.688;7.130;2023-01-10T12:30:19;17.87;;;4.87;;
15616;SDS011;7908;51.688;7.130;2023-01-10T12:32:55;26.67;;;8.70;;
15616;SDS011;7908;51.688;7.130;2023-01-10T12:35:32;29.40;;;7.80;;
15616;SDS011;7908;51.688;7.130;2023-01-10T12:38:08;24.87;;;9.53;;
15616;SDS011;7908;51.688;7.130;2023-01-10T12:40:51;24.87;;;5.57;;
15616;SDS011;7908;51.688;7.130;2023-01-10T12:43:26;18.73;;;4.10;;
15616;SDS011;7908;51.688;7.130;2023-01-10T12:46:21;19.47;;;5.43;;
15616;SDS011;7908;51.688;7.130;2023-01-10T12:49:17;20.83;;;5.43;;
15616;SDS011;7908;51.688;7.130;2023-01-10T12:51:50;18.33;;;5.00;;
15616;SDS011;7908;51.688;7.130;2023-01-10T12:54:22;17.07;;;4.63;;
15616;SDS011;7908;51.688;7.130;2023-01-10T12:56:53;20.87;;;4.70;;
15616;SDS011;7908;51.688;7.130;2023-01-10T12:59:27;23.60;;;5.00;;
15616;SDS011;7908;51.688;7.130;2023-01-10T13:02:06;17.03;;;5.00;;
15616;SDS011;7908;51.688;7.130;2023-01-10T13:04:41;21.57;;;4.60;;
15616;SDS011;7908;51.688;7.130;2023-01-10T13:07:15;13.90;;;4.23;;
15616;SDS011;7908;51.688;7.130;2023-01-10T13:09:45;17.63;;;5.30;;
15616;SDS011;7908;51.688;7.130;2023-01-10T13:12:17;17.00;;;5.17;;
15616;SDS011;7908;51.688;7.130;2023-01-10T13:15:01;15.97;;;4.40;;
15616;SDS011;7908;51.688;7.130;2023-01-10T13:17:41;18.90;;;4.73;;
15616;SDS011;7908;51.688;7.130;2023-01-10T13:20:18;18.53;;;4.00;;
15616;SDS011;7908;51.688;7.130;2023-01-10T13:22:54;18.07;;;4.37;;
15616;SDS011;7908;51.688;7.130;2023-01-10T13:25:25;19.37;;;3.87;;
15616;SDS011;7908;51.688;7.130;2023-01-10T13:27:56;19.10;;;4.47;;
15616;SDS011;7908;51.688;7.130;2023-01-10T13:30:30;21.40;;;5.03;;
15616;SDS011;7908;51.688;7.130;2023-01-10T13:33:04;21.00;;;4.97;;
15616;SDS011;7908;51.688;7.130;2023-01-10T13:35:38;18.10;;;5.07;;
15616;SDS011;7908;51.688;7.130;2023-01-10T13:38:17;20.77;;;4.77;;
15616;SDS011;7908;51.688;7.130;2023-01-10T13:40:56;23.37;;;4.77;;
15616;SDS011;7908;51.688;7.130;2023-01-10T13:43:31;16.53;;;4.67;;
15616;SDS011;7908;51.688;7.130;2023-01-10T13:57:51;16.10;;;4.10;;
15616;SDS011;7908;51.688;7.130;2023-01-10T14:00:22;15.53;;;4.53;;
15616;SDS011;7908;51.688;7.130;2023-01-10T14:06:08;22.50;;;5.73;;
15616;SDS011;7908;51.688;7.130;2023-01-10T14:08:53;19.30;;;5.23;;
15616;SDS011;7908;51.688;7.130;2023-01-10T14:11:23;21.47;;;5.33;;
15616;SDS011;7908;51.688;7.130;2023-01-10T14:13:57;19.20;;;4.30;;
15616;SDS011;7908;51.688;7.130;2023-01-10T14:16:32;16.10;;;4.57;;
15616;SDS011;7908;51.688;7.130;2023-01-10T14:19:03;16.10;;;4.40;;
15616;SDS011;7908;51.688;7.130;2023-01-10T14:21:36;11.37;;;3.33;;
15616;SDS011;7908;51.688;7.130;2023-01-10T14:24:19;14.63;;;4.47;;
15616;SDS011;7908;51.688;7.130;2023-01-10T14:26:52;13.60;;;4.63;;
15616;SDS011;7908;51.688;7.130;2023-01-10T14:29:23;13.70;;;3.60;;
15616;SDS011;7908;51.688;7.130;2023-01-10T14:31:57;14.53;;;3.30;;
15616;SDS011;7908;51.688;7.130;2023-01-10T14:34:28;13.27;;;3.40;;
15616;SDS011;7908;51.688;7.130;2023-01-10T14:37:02;15.13;;;3.90;;
15616;SDS011;7908;51.688;7.130;2023-01-10T14:39:38;21.17;;;4.77;;
15616;SDS011;7908;51.688;7.130;2023-01-10T14:42:11;14.40;;;3.73;;
15616;SDS011;7908;51.688;7.130;2023-01-10T14:44:45;13.63;;;4.00;;
15616;SDS011;7908;51.688;7.130;2023-01-10T14:47:26;11.63;;;4.00;;
15616;SDS011;7908;51.688;7.130;2023-01-10T14:49:56;16.97;;;4.13;;
15616;SDS011;7908;51.688;7.130;2023-01-10T14:52:26;14.57;;;3.67;;
15616;SDS011;7908;51.688;7.130;2023-01-10T14:55:03;11.83;;;3.97;;
15616;SDS011;7908;51.688;7.130;2023-01-10T14:57:37;15.23;;;4.10;;
15616;SDS011;7908;51.688;7.130;2023-01-10T15:00:11;16.03;;;4.03;;
15616;SDS011;7908;51.688;7.130;2023-01-10T15:02:43;14.70;;;3.63;;
15616;SDS011;7908;51.688;7.130;2023-01-10T15:05:15;16.83;;;3.87;;
15616;SDS011;7908;51.688;7.130;2023-01-10T15:07:46;12.57;;;3.23;;
15616;SDS011;7908;51.688;7.130;2023-01-10T15:10:21;14.60;;;3.70;;
15616;SDS011;7908;51.688;7.130;2023-01-10T15:12:53;13.23;;;3.20;;
15616;SDS011;7908;51.688;7.130;2023-01-10T15:15:26;15.53;;;3.50;;
15616;SDS011;7908;51.688;7.130;2023-01-10T15:17:59;14.20;;;3.40;;
15616;SDS011;7908;51.688;7.130;2023-01-10T15:20:39;13.00;;;3.10;;
15616;SDS011;7908;51.688;7.130;2023-01-10T15:23:13;13.27;;;3.30;;
15616;SDS011;7908;51.688;7.130;2023-01-10T15:25:54;15.33;;;3.17;;
15616;SDS011;7908;51.688;7.130;2023-01-10T15:28:26;13.77;;;4.43;;
15616;SDS011;7908;51.688;7.130;2023-01-10T15:30:57;17.53;;;3.80;;
15616;SDS011;7908;51.688;7.130;2023-01-10T15:33:27;16.30;;;3.63;;
15616;SDS011;7908;51.688;7.130;2023-01-10T15:36:01;12.57;;;3.73;;
15616;SDS011;7908;51.688;7.130;2023-01-10T15:38:34;9.53;;;3.20;;
15616;SDS011;7908;51.688;7.130;2023-01-10T15:41:07;16.60;;;4.60;;
15616;SDS011;7908;51.688;7.130;2023-01-10T15:43:41;10.03;;;3.37;;
15616;SDS011;7908;51.688;7.130;2023-01-10T15:46:16;13.67;;;4.50;;